Terminal Aerodrome Forecast
Issued by NWS

Home | Current Version | Previous Version | Text Only | Print | Product List | Glossary On
Versions: 1 2 3 4 5 6 7 8 9 10 11 12 13 14 15 16 17 18
000
FTUS45 KPIH 012000 AAA
TAFSUN
TAF AMD
KSUN 012024Z 0120/0218 15008KT P6SM -SHRA VCTS SCT080CB BKN120
     FM020300 31008KT P6SM SCT120=

USA.gov is the U.S. government's official web portal to all federal, state and local government web resources and services.